USCGC Tern — NEOT — position and weather

sailwx.info

Track history (hours):
 
Tides and Currents Weather Stations Pressure Air Temp Water Temp Dewpoint Dewpoint Depression Visibility Wind Speed Wind Dir Waves Ship Positions

USCGC Tern

Last reported at 2017-Jan-31 11:32 UTC. Time now 2017-Feb-22 22:05 UTC.
Position N 37°18' W 122°30'.
Warning: this ship's position is 22 days out of date.

Length 26 m; draft 1.7 m.

Type: SAR. MMSI: 366999711.

Date/timePositionNaut miles runAvg speedWind from/ knotsBaromVisibWave heightAir tempDewpointWater temp
2017-Jan-31 11:32N 37°18' W 122°30'9 7.0
2017-Jan-31 10:15N 37°09' W 122°25'7 9.5
2017-Jan-31 09:33N 37°04' W 122°21'7 7.4
2017-Jan-31 08:33N 36°58' W 122°15'7 7.1
2017-Jan-31 07:33N 36°53' W 122°09'3 0.7
2017-Jan-31 02:24N 36°56' W 122°09'1212.1
2017-Jan-31 01:23N 37°03' W 122°22'1311.7
2017-Jan-31 00:16N 37°15' W 122°29'2011.8
2017-Jan-30 22:33N 37°35' W 122°36'1110.9
2017-Jan-30 21:32N 37°46' W 122°37'1111.3
2017-Jan-30 20:34N 37°49' W 122°23'1 1.2
2017-Jan-30 19:31N 37°49' W 122°22'0 0.0
2017-Jan-30 18:31N 37°49' W 122°22'0 0.0
2017-Jan-30 17:28N 37°49' W 122°22'0 0.0
2017-Jan-30 16:31N 37°49' W 122°22'0 0.0
2017-Jan-30 15:31N 37°49' W 122°22'0 0.0
2017-Jan-30 14:29N 37°49' W 122°22'0 0.0
2017-Jan-30 13:32N 37°49' W 122°22'0 0.0
2017-Jan-30 12:31N 37°49' W 122°22'0 0.0
2017-Jan-30 11:31N 37°49' W 122°22'0 0.0
2017-Jan-30 10:31N 37°49' W 122°22'0 0.0
2017-Jan-30 09:31N 37°49' W 122°22'0 0.0
2017-Jan-30 08:31N 37°49' W 122°22'0 0.0
2017-Jan-30 07:31N 37°49' W 122°22'0 0.0
2017-Jan-30 06:31N 37°49' W 122°22'0 0.0
2017-Jan-30 05:26N 37°49' W 122°22'0 0.0
2017-Jan-30 04:26N 37°49' W 122°22'0 0.0
2017-Jan-30 03:29N 37°49' W 122°22'0 0.0
2017-Jan-30 02:29N 37°49' W 122°22'0 0.0
2017-Jan-30 01:31N 37°49' W 122°22'0 0.0
2017-Jan-30 00:31N 37°49' W 122°22'0 0.0
2017-Jan-29 23:31N 37°49' W 122°22'0 0.0
2017-Jan-29 22:31N 37°49' W 122°22'0 0.0
2017-Jan-29 21:32N 37°49' W 122°22'0 0.0
2017-Jan-29 20:32N 37°49' W 122°22'0 0.0
2017-Jan-29 19:32N 37°49' W 122°22'0 0.0
2017-Jan-29 18:31N 37°49' W 122°22'0 0.1
2017-Jan-29 17:33N 37°49' W 122°22'4 3.9
2017-Jan-29 16:33N 37°51' W 122°26'2 2.1
2017-Jan-29 15:33N 37°51' W 122°28'0 0.0
2017-Jan-29 14:32N 37°51' W 122°28'0 0.0
2017-Jan-29 13:32N 37°51' W 122°28'0 0.0
2017-Jan-29 12:32N 37°51' W 122°28'0 0.0
2017-Jan-29 11:32N 37°51' W 122°28'0 0.0
2017-Jan-29 10:32N 37°51' W 122°28'0 0.0
2017-Jan-29 09:32N 37°51' W 122°28'0 0.0
2017-Jan-29 08:32N 37°51' W 122°28'0 0.0
2017-Jan-29 07:32N 37°51' W 122°28'0 0.0
2017-Jan-29 06:32N 37°51' W 122°28'0 0.0
2017-Jan-29 05:32N 37°51' W 122°28'0 0.0
2017-Jan-29 04:33N 37°51' W 122°28'0 0.0
2017-Jan-29 03:33N 37°51' W 122°28'0 0.0
2017-Jan-29 02:32N 37°51' W 122°28'4 3.7
2017-Jan-29 01:33N 37°49' W 122°25'1 1.4
2017-Jan-29 00:34N 37°50' W 122°23'0 0.2
2017-Jan-28 23:33N 37°50' W 122°23'4 3.6
2017-Jan-28 22:33N 37°50' W 122°28'7 6.9
2017-Jan-28 21:33N 37°57' W 122°27'5 4.7
2017-Jan-28 20:32N 38°02' W 122°24'16 0.8
2017-Jan-27 23:33N 37°48' W 122°34'9 8.8
2017-Jan-27 22:33N 37°49' W 122°23'8 7.8
2017-Jan-27 21:33N 37°41' W 122°21'4 4.2
2017-Jan-27 20:34N 37°45' W 122°20'3 3.3
2017-Jan-27 19:33N 37°49' W 122°22'0 0.0
2017-Jan-27 18:32N 37°49' W 122°22'0 0.0
2017-Jan-27 17:33N 37°49' W 122°22'0 0.0
2017-Jan-27 16:30N 37°49' W 122°22'0 0.0
2017-Jan-27 15:33N 37°49' W 122°22'0 0.0
2017-Jan-27 14:33N 37°49' W 122°22'0 0.0
2017-Jan-27 13:33N 37°49' W 122°22'0 0.0
2017-Jan-27 11:32N 37°49' W 122°22'0 0.0
2017-Jan-27 10:33N 37°49' W 122°22'0 0.0
2017-Jan-27 09:33N 37°49' W 122°22'0 0.0
2017-Jan-27 08:33N 37°49' W 122°22'0 0.0
2017-Jan-27 07:33N 37°49' W 122°22'0 0.0
2017-Jan-27 06:33N 37°49' W 122°22'0 0.0
2017-Jan-27 05:33N 37°49' W 122°22'0 0.0
2017-Jan-27 04:33N 37°49' W 122°22'0 0.0
2017-Jan-27 03:33N 37°49' W 122°22'0 0.0
2017-Jan-27 02:33N 37°49' W 122°22'0 0.0
2017-Jan-27 01:30N 37°49' W 122°22'0 0.0
2017-Jan-27 00:30N 37°49' W 122°22'0 0.0
2017-Jan-26 23:33N 37°49' W 122°22'0 0.0
2017-Jan-26 22:30N 37°49' W 122°22'0 0.0
2017-Jan-26 21:33N 37°49' W 122°22'5 4.7
2017-Jan-26 20:33N 37°52' W 122°25'10 9.6
2017-Jan-26 19:33N 38°02' W 122°23'2 1.8
2017-Jan-26 18:33N 38°01' W 122°25'2 1.8
2017-Jan-26 17:30N 37°59' W 122°26'8 8.9
2017-Jan-26 16:33N 37°51' W 122°28'0 0.0
2017-Jan-26 15:33N 37°51' W 122°28'0 0.0
2017-Jan-26 14:33N 37°51' W 122°28'0 0.0
2017-Jan-26 13:33N 37°51' W 122°28'0 0.0
2017-Jan-26 12:33N 37°51' W 122°28'0 0.0
2017-Jan-26 11:33N 37°51' W 122°28'0 0.0
2017-Jan-26 10:33N 37°51' W 122°28'0 0.0
2017-Jan-26 09:33N 37°51' W 122°28'0 0.0
2017-Jan-26 08:33N 37°51' W 122°28'0 0.0
2017-Jan-26 07:32N 37°51' W 122°28'0 0.0
2017-Jan-26 06:33N 37°51' W 122°28'0 0.0
2017-Jan-26 05:33N 37°51' W 122°28'0 0.0
2017-Jan-26 04:33N 37°51' W 122°28'0 0.0
2017-Jan-26 03:33N 37°51' W 122°28'0 0.0
2017-Jan-26 02:34N 37°51' W 122°28'6 5.8
2017-Jan-26 01:32N 37°49' W 122°22'0 0.0
2017-Jan-26 00:30N 37°49' W 122°22'0 0.0
2017-Jan-25 23:32N 37°49' W 122°22'8 8.0
2017-Jan-25 22:33N 37°41' W 122°20'10 4.2
2017-Jan-25 20:11N 37°33' W 122°12'0 0.0
2017-Jan-25 14:12N 37°33' W 122°11'0 0.4
2017-Jan-25 13:33N 37°33' W 122°11'1 1.2
2017-Jan-25 12:27N 37°32' W 122°10'2 1.7
2017-Jan-25 11:26N 37°33' W 122°12'2 2.3
2017-Jan-25 10:26N 37°32' W 122°09'4 5.1
2017-Jan-25 09:33N 37°35' W 122°14'4 0.5
2017-Jan-25 02:04N 37°32' W 122°10'  
Track history (hours):
 
Tides and Currents Weather Stations Pressure Air Temp Water Temp Dewpoint Dewpoint Depression Visibility Wind Speed Wind Dir Waves Ship Positions

USCGC Tern

Last reported at 2017-Jan-31 11:32 UTC. Time now 2017-Feb-22 22:05 UTC.
Position N 37°18' W 122°30'.
Warning: this ship's position is 22 days out of date.

Length 26 m; draft 1.7 m.

Type: SAR. MMSI: 366999711.

Date/timePositionNaut miles runAvg speedWind from/ knotsBaromVisibWave heightAir tempDewpointWater temp
2017-Jan-31 11:32N 37°18' W 122°30'9 7.0
2017-Jan-31 10:15N 37°09' W 122°25'7 9.5
2017-Jan-31 09:33N 37°04' W 122°21'7 7.4
2017-Jan-31 08:33N 36°58' W 122°15'7 7.1
2017-Jan-31 07:33N 36°53' W 122°09'3 0.7
2017-Jan-31 02:24N 36°56' W 122°09'1212.1
2017-Jan-31 01:23N 37°03' W 122°22'1311.7
2017-Jan-31 00:16N 37°15' W 122°29'2011.8
2017-Jan-30 22:33N 37°35' W 122°36'1110.9
2017-Jan-30 21:32N 37°46' W 122°37'1111.3
2017-Jan-30 20:34N 37°49' W 122°23'1 1.2
2017-Jan-30 19:31N 37°49' W 122°22'0 0.0
2017-Jan-30 18:31N 37°49' W 122°22'0 0.0
2017-Jan-30 17:28N 37°49' W 122°22'0 0.0
2017-Jan-30 16:31N 37°49' W 122°22'0 0.0
2017-Jan-30 15:31N 37°49' W 122°22'0 0.0
2017-Jan-30 14:29N 37°49' W 122°22'0 0.0
2017-Jan-30 13:32N 37°49' W 122°22'0 0.0
2017-Jan-30 12:31N 37°49' W 122°22'0 0.0
2017-Jan-30 11:31N 37°49' W 122°22'0 0.0
2017-Jan-30 10:31N 37°49' W 122°22'0 0.0
2017-Jan-30 09:31N 37°49' W 122°22'0 0.0
2017-Jan-30 08:31N 37°49' W 122°22'0 0.0
2017-Jan-30 07:31N 37°49' W 122°22'0 0.0
2017-Jan-30 06:31N 37°49' W 122°22'0 0.0
2017-Jan-30 05:26N 37°49' W 122°22'0 0.0
2017-Jan-30 04:26N 37°49' W 122°22'0 0.0
2017-Jan-30 03:29N 37°49' W 122°22'0 0.0
2017-Jan-30 02:29N 37°49' W 122°22'0 0.0
2017-Jan-30 01:31N 37°49' W 122°22'0 0.0
2017-Jan-30 00:31N 37°49' W 122°22'0 0.0
2017-Jan-29 23:31N 37°49' W 122°22'0 0.0
2017-Jan-29 22:31N 37°49' W 122°22'0 0.0
2017-Jan-29 21:32N 37°49' W 122°22'0 0.0
2017-Jan-29 20:32N 37°49' W 122°22'0 0.0
2017-Jan-29 19:32N 37°49' W 122°22'0 0.0
2017-Jan-29 18:31N 37°49' W 122°22'0 0.1
2017-Jan-29 17:33N 37°49' W 122°22'4 3.9
2017-Jan-29 16:33N 37°51' W 122°26'2 2.1
2017-Jan-29 15:33N 37°51' W 122°28'0 0.0
2017-Jan-29 14:32N 37°51' W 122°28'0 0.0
2017-Jan-29 13:32N 37°51' W 122°28'0 0.0
2017-Jan-29 12:32N 37°51' W 122°28'0 0.0
2017-Jan-29 11:32N 37°51' W 122°28'0 0.0
2017-Jan-29 10:32N 37°51' W 122°28'0 0.0
2017-Jan-29 09:32N 37°51' W 122°28'0 0.0
2017-Jan-29 08:32N 37°51' W 122°28'0 0.0
2017-Jan-29 07:32N 37°51' W 122°28'0 0.0
2017-Jan-29 06:32N 37°51' W 122°28'0 0.0
2017-Jan-29 05:32N 37°51' W 122°28'0 0.0
2017-Jan-29 04:33N 37°51' W 122°28'0 0.0
2017-Jan-29 03:33N 37°51' W 122°28'0 0.0
2017-Jan-29 02:32N 37°51' W 122°28'4 3.7
2017-Jan-29 01:33N 37°49' W 122°25'1 1.4
2017-Jan-29 00:34N 37°50' W 122°23'0 0.2
2017-Jan-28 23:33N 37°50' W 122°23'4 3.6
2017-Jan-28 22:33N 37°50' W 122°28'7 6.9
2017-Jan-28 21:33N 37°57' W 122°27'5 4.7
2017-Jan-28 20:32N 38°02' W 122°24'16 0.8
2017-Jan-27 23:33N 37°48' W 122°34'9 8.8
2017-Jan-27 22:33N 37°49' W 122°23'8 7.8
2017-Jan-27 21:33N 37°41' W 122°21'4 4.2
2017-Jan-27 20:34N 37°45' W 122°20'3 3.3
2017-Jan-27 19:33N 37°49' W 122°22'0 0.0
2017-Jan-27 18:32N 37°49' W 122°22'0 0.0
2017-Jan-27 17:33N 37°49' W 122°22'0 0.0
2017-Jan-27 16:30N 37°49' W 122°22'0 0.0
2017-Jan-27 15:33N 37°49' W 122°22'0 0.0
2017-Jan-27 14:33N 37°49' W 122°22'0 0.0
2017-Jan-27 13:33N 37°49' W 122°22'0 0.0
2017-Jan-27 11:32N 37°49' W 122°22'0 0.0
2017-Jan-27 10:33N 37°49' W 122°22'0 0.0
2017-Jan-27 09:33N 37°49' W 122°22'0 0.0
2017-Jan-27 08:33N 37°49' W 122°22'0 0.0
2017-Jan-27 07:33N 37°49' W 122°22'0 0.0
2017-Jan-27 06:33N 37°49' W 122°22'0 0.0
2017-Jan-27 05:33N 37°49' W 122°22'0 0.0
2017-Jan-27 04:33N 37°49' W 122°22'0 0.0
2017-Jan-27 03:33N 37°49' W 122°22'0 0.0
2017-Jan-27 02:33N 37°49' W 122°22'0 0.0
2017-Jan-27 01:30N 37°49' W 122°22'0 0.0
2017-Jan-27 00:30N 37°49' W 122°22'0 0.0
2017-Jan-26 23:33N 37°49' W 122°22'0 0.0
2017-Jan-26 22:30N 37°49' W 122°22'0 0.0
2017-Jan-26 21:33N 37°49' W 122°22'5 4.7
2017-Jan-26 20:33N 37°52' W 122°25'10 9.6
2017-Jan-26 19:33N 38°02' W 122°23'2 1.8
2017-Jan-26 18:33N 38°01' W 122°25'2 1.8
2017-Jan-26 17:30N 37°59' W 122°26'8 8.9
2017-Jan-26 16:33N 37°51' W 122°28'0 0.0
2017-Jan-26 15:33N 37°51' W 122°28'0 0.0
2017-Jan-26 14:33N 37°51' W 122°28'0 0.0
2017-Jan-26 13:33N 37°51' W 122°28'0 0.0
2017-Jan-26 12:33N 37°51' W 122°28'0 0.0
2017-Jan-26 11:33N 37°51' W 122°28'0 0.0
2017-Jan-26 10:33N 37°51' W 122°28'0 0.0
2017-Jan-26 09:33N 37°51' W 122°28'0 0.0
2017-Jan-26 08:33N 37°51' W 122°28'0 0.0
2017-Jan-26 07:32N 37°51' W 122°28'0 0.0
2017-Jan-26 06:33N 37°51' W 122°28'0 0.0
2017-Jan-26 05:33N 37°51' W 122°28'0 0.0
2017-Jan-26 04:33N 37°51' W 122°28'0 0.0
2017-Jan-26 03:33N 37°51' W 122°28'0 0.0
2017-Jan-26 02:34N 37°51' W 122°28'6 5.8
2017-Jan-26 01:32N 37°49' W 122°22'0 0.0
2017-Jan-26 00:30N 37°49' W 122°22'0 0.0
2017-Jan-25 23:32N 37°49' W 122°22'8 8.0
2017-Jan-25 22:33N 37°41' W 122°20'10 4.2
2017-Jan-25 20:11N 37°33' W 122°12'0 0.0
2017-Jan-25 14:12N 37°33' W 122°11'0 0.4
2017-Jan-25 13:33N 37°33' W 122°11'1 1.2
2017-Jan-25 12:27N 37°32' W 122°10'2 1.7
2017-Jan-25 11:26N 37°33' W 122°12'2 2.3
2017-Jan-25 10:26N 37°32' W 122°09'4 5.1
2017-Jan-25 09:33N 37°35' W 122°14'4 0.5
2017-Jan-25 02:04N 37°32' W 122°10'  

Dump ship's entire track history